createdAt,value
2018-11-22T00:00:23.736Z,20.70
2018-11-22T00:01:23.729Z,21.20
2018-11-22T00:02:23.725Z,21.10
2018-11-22T00:03:23.715Z,20.60
2018-11-22T00:04:23.749Z,21.70
2018-11-22T00:05:23.702Z,22.30
2018-11-22T00:06:23.697Z,19.90
2018-11-22T00:07:23.689Z,20.50
2018-11-22T00:08:23.679Z,22.10
2018-11-22T00:09:23.706Z,22.40
2018-11-22T00:10:23.668Z,20.90
2018-11-22T00:11:23.666Z,22.10
2018-11-22T00:12:23.649Z,22.40
2018-11-22T00:13:23.639Z,20.40
2018-11-22T00:14:23.678Z,20.40
2018-11-22T00:15:23.632Z,20.10
2018-11-22T00:16:23.624Z,18.20
2018-11-22T00:17:23.624Z,19.60
2018-11-22T00:18:23.608Z,21.00
2018-11-22T00:19:23.640Z,20.90
2018-11-22T00:20:23.596Z,18.30
2018-11-22T00:21:23.592Z,17.10
2018-11-22T00:22:23.584Z,20.70
2018-11-22T00:23:23.576Z,20.00
2018-11-22T00:24:23.604Z,19.50
2018-11-22T00:25:23.561Z,20.40
2018-11-22T00:26:23.555Z,20.70
2018-11-22T00:27:23.547Z,19.50
2018-11-22T00:28:23.541Z,19.90
2018-11-22T00:29:23.568Z,21.10
2018-11-22T00:30:23.523Z,20.20
2018-11-22T00:31:23.518Z,18.90
2018-11-22T00:32:23.511Z,19.50
2018-11-22T00:33:23.500Z,20.50
2018-11-22T00:34:23.535Z,19.60
2018-11-22T00:35:23.492Z,20.40
2018-11-22T00:36:23.483Z,19.50
2018-11-22T00:37:23.475Z,20.60
2018-11-22T00:38:23.470Z,19.40
2018-11-22T00:39:23.498Z,19.60
2018-11-22T00:40:23.454Z,19.00
2018-11-22T00:41:23.444Z,19.30
2018-11-22T00:42:23.441Z,19.70
2018-11-22T00:43:23.435Z,19.40
2018-11-22T00:44:23.458Z,19.40
2018-11-22T00:45:23.419Z,19.60
2018-11-22T00:46:23.417Z,19.80
2018-11-22T00:47:23.406Z,19.80
2018-11-22T00:48:23.397Z,18.50
2018-11-22T00:49:23.429Z,20.80
2018-11-22T00:50:23.385Z,19.90
2018-11-22T00:51:23.375Z,20.00
2018-11-22T00:52:23.369Z,19.50
2018-11-22T00:53:23.365Z,17.80
2018-11-22T00:54:23.392Z,19.90
2018-11-22T00:55:23.355Z,20.00
2018-11-22T00:56:23.338Z,19.80
2018-11-22T00:57:23.333Z,19.30
2018-11-22T00:58:23.365Z,20.10
2018-11-22T00:59:23.320Z,20.90
2018-11-22T01:00:23.312Z,20.80
2018-11-22T01:01:23.306Z,20.00
2018-11-22T01:02:23.300Z,20.30
2018-11-22T01:03:23.332Z,20.60
2018-11-22T01:04:23.283Z,19.70
2018-11-22T01:05:23.280Z,20.40
2018-11-22T01:06:23.274Z,19.80
2018-11-22T01:07:23.271Z,19.40
2018-11-22T01:08:23.293Z,19.40
2018-11-22T01:09:23.288Z,20.10
2018-11-22T01:10:23.243Z,19.50
2018-11-22T01:11:23.231Z,20.90
2018-11-22T01:12:23.230Z,20.70
2018-11-22T01:13:23.223Z,20.10
2018-11-22T01:14:23.252Z,20.60
2018-11-22T01:15:23.208Z,19.30
2018-11-22T01:16:23.200Z,20.10
2018-11-22T01:17:23.195Z,19.60
2018-11-22T01:18:23.220Z,18.80
2018-11-22T01:19:23.179Z,19.50
2018-11-22T01:20:23.172Z,19.60
2018-11-22T01:21:23.168Z,17.50
2018-11-22T01:22:23.159Z,19.50
2018-11-22T01:23:23.187Z,19.70
2018-11-22T01:24:23.147Z,19.00
2018-11-22T01:25:23.135Z,18.40
2018-11-22T01:26:23.133Z,18.30
2018-11-22T01:27:23.126Z,19.50
2018-11-22T01:28:23.150Z,20.10
2018-11-22T01:29:23.107Z,19.20
2018-11-22T01:30:23.102Z,20.00
2018-11-22T01:31:23.098Z,19.80
2018-11-22T01:32:23.094Z,19.40
2018-11-22T01:33:23.120Z,20.00
2018-11-22T01:34:23.074Z,19.80
2018-11-22T01:35:23.070Z,17.50
2018-11-22T01:36:23.062Z,18.80
2018-11-22T01:37:23.056Z,19.20
2018-11-22T01:38:23.082Z,20.20
2018-11-22T01:39:23.042Z,19.80
2018-11-22T01:40:23.034Z,19.20
2018-11-22T01:41:23.028Z,19.50
2018-11-22T01:42:23.022Z,19.50
2018-11-22T01:43:23.050Z,19.30
2018-11-22T01:44:23.002Z,19.10
2018-11-22T01:45:23.006Z,20.10
2018-11-22T01:46:22.994Z,19.90
2018-11-22T01:47:22.986Z,19.50
2018-11-22T01:48:23.014Z,20.10
2018-11-22T01:49:22.969Z,19.50
2018-11-22T01:50:22.961Z,19.50
2018-11-22T01:51:22.961Z,20.70
2018-11-22T01:52:22.992Z,20.10
2018-11-22T01:53:22.946Z,19.40
2018-11-22T01:54:22.937Z,20.70
2018-11-22T01:55:22.937Z,20.80
2018-11-22T01:56:22.917Z,19.60
2018-11-22T01:57:22.954Z,20.00
2018-11-22T01:58:22.909Z,19.90
2018-11-22T01:59:22.976Z,19.70
2018-11-22T02:00:22.899Z,19.60
2018-11-22T02:01:22.889Z,20.90
2018-11-22T02:02:22.918Z,20.20
2018-11-22T02:03:22.872Z,20.70
2018-11-22T02:04:22.866Z,20.40
2018-11-22T02:05:22.860Z,20.50
2018-11-22T02:06:22.855Z,18.80
2018-11-22T02:07:22.880Z,19.90
2018-11-22T02:08:22.845Z,20.30
2018-11-22T02:09:22.831Z,18.80
2018-11-22T02:10:22.861Z,20.20
2018-11-22T02:11:22.819Z,19.30
2018-11-22T02:12:22.811Z,17.10
2018-11-22T02:13:22.840Z,18.50
2018-11-22T02:14:22.799Z,19.20
2018-11-22T02:15:22.795Z,20.30
2018-11-22T02:16:22.780Z,19.50
2018-11-22T02:17:22.816Z,19.40
2018-11-22T02:18:22.771Z,19.90
2018-11-22T02:19:22.768Z,20.40
2018-11-22T02:20:22.755Z,20.30
2018-11-22T02:21:22.751Z,20.20
2018-11-22T02:22:22.779Z,20.20
2018-11-22T02:23:22.735Z,20.60
2018-11-22T02:24:22.732Z,19.40
2018-11-22T02:25:22.714Z,19.10
2018-11-22T02:26:22.723Z,19.30
2018-11-22T02:27:22.753Z,20.20
2018-11-22T02:28:22.698Z,19.10
2018-11-22T02:29:22.695Z,19.90
2018-11-22T02:30:22.725Z,18.70
2018-11-22T02:31:22.684Z,20.50
2018-11-22T02:32:22.679Z,20.60
2018-11-22T02:33:22.700Z,19.70
2018-11-22T02:34:22.658Z,19.60
2018-11-22T02:35:22.651Z,19.70
2018-11-22T02:36:22.643Z,19.80
2018-11-22T02:37:22.642Z,20.10
2018-11-22T02:38:22.666Z,20.30
2018-11-22T02:39:22.630Z,20.60
2018-11-22T02:40:22.618Z,20.20
2018-11-22T02:41:22.636Z,20.40
2018-11-22T02:42:22.598Z,20.60
2018-11-22T02:43:22.631Z,20.70
2018-11-22T02:44:22.593Z,21.10
2018-11-22T02:45:22.581Z,21.00
2018-11-22T02:46:22.574Z,21.40
2018-11-22T02:47:22.569Z,21.80
2018-11-22T02:48:22.597Z,20.60
2018-11-22T02:49:22.557Z,19.60
2018-11-22T02:50:22.549Z,21.20
2018-11-22T02:51:22.541Z,21.50
2018-11-22T02:52:22.535Z,22.10
2018-11-22T02:53:22.565Z,21.80
2018-11-22T02:54:22.522Z,21.70
2018-11-22T02:55:22.517Z,23.10
2018-11-22T02:56:22.501Z,22.80
2018-11-22T02:57:22.507Z,22.70
2018-11-22T02:58:22.533Z,21.60
2018-11-22T02:59:22.484Z,22.40
2018-11-22T03:00:22.481Z,22.90
2018-11-22T03:01:22.487Z,22.80
2018-11-22T03:02:22.480Z,23.00
2018-11-22T03:03:22.501Z,22.50
2018-11-22T03:04:22.465Z,23.40
2018-11-22T03:05:22.456Z,21.50
2018-11-22T03:06:22.448Z,22.80
2018-11-22T03:07:22.449Z,23.30
2018-11-22T03:08:22.462Z,23.20
2018-11-22T03:09:22.427Z,23.30
2018-11-22T03:10:22.424Z,23.00
2018-11-22T03:11:22.449Z,24.30
2018-11-22T03:12:22.405Z,24.10
2018-11-22T03:13:22.411Z,23.00
2018-11-22T03:14:22.425Z,23.60
2018-11-22T03:15:22.388Z,23.00
2018-11-22T03:16:22.380Z,23.10
2018-11-22T03:17:22.377Z,23.70
2018-11-22T03:18:22.369Z,24.90
2018-11-22T03:19:22.388Z,22.20
2018-11-22T03:20:22.358Z,24.60
2018-11-22T03:21:22.352Z,24.60
2018-11-22T03:22:22.339Z,24.40
2018-11-22T03:23:22.334Z,24.10
2018-11-22T03:24:22.491Z,23.20
2018-11-22T03:25:22.319Z,23.70
2018-11-22T03:26:22.314Z,24.20
2018-11-22T03:27:22.302Z,25.10
2018-11-22T03:28:22.300Z,25.00
2018-11-22T03:29:22.319Z,24.20
2018-11-22T03:30:22.284Z,24.90
2018-11-22T03:31:22.279Z,25.60
2018-11-22T03:32:22.274Z,24.90
2018-11-22T03:33:22.262Z,25.80
2018-11-22T03:34:22.289Z,25.80
2018-11-22T03:35:22.259Z,26.10
2018-11-22T03:36:22.273Z,23.70
2018-11-22T03:37:22.230Z,25.50
2018-11-22T03:38:22.230Z,25.00
2018-11-22T03:39:22.220Z,25.00
2018-11-22T03:40:22.242Z,24.70
2018-11-22T03:41:22.210Z,24.80
2018-11-22T03:42:22.202Z,24.20
2018-11-22T03:43:22.193Z,25.60
2018-11-22T03:44:22.186Z,26.80
2018-11-22T03:45:22.206Z,26.10
2018-11-22T03:46:22.173Z,24.50
2018-11-22T03:47:22.165Z,24.80
2018-11-22T03:48:22.158Z,24.80
2018-11-22T03:49:22.154Z,25.30
2018-11-22T03:50:22.177Z,25.50
2018-11-22T03:51:22.138Z,25.60
2018-11-22T03:52:22.133Z,25.60
2018-11-22T03:53:22.130Z,25.60
2018-11-22T03:54:22.118Z,24.20
2018-11-22T03:55:22.140Z,24.80
2018-11-22T03:56:22.106Z,24.90
2018-11-22T03:57:22.105Z,24.90
2018-11-22T03:58:22.089Z,24.60
2018-11-22T03:59:22.077Z,24.30
2018-11-22T04:00:22.105Z,25.40
2018-11-22T04:01:22.068Z,26.00
2018-11-22T04:02:22.057Z,26.00
2018-11-22T04:03:22.062Z,26.40
2018-11-22T04:04:22.048Z,26.10
2018-11-22T04:05:22.067Z,25.90
2018-11-22T04:06:22.032Z,25.90
2018-11-22T04:07:22.028Z,25.60
2018-11-22T04:08:22.021Z,26.00
2018-11-22T04:09:22.012Z,25.00
2018-11-22T04:10:22.032Z,27.00
2018-11-22T04:11:22.002Z,25.20
2018-11-22T04:12:21.992Z,26.60
2018-11-22T04:13:21.990Z,25.30
2018-11-22T04:14:21.976Z,25.70
2018-11-22T04:15:22.003Z,25.10
2018-11-22T04:16:21.964Z,26.00
2018-11-22T04:17:21.988Z,24.90
2018-11-22T04:18:21.951Z,25.90
2018-11-22T04:19:21.942Z,26.60
2018-11-22T04:20:21.940Z,24.90
2018-11-22T04:21:21.967Z,26.30
2018-11-22T04:22:21.927Z,25.80
2018-11-22T04:23:21.919Z,25.50
2018-11-22T04:24:21.912Z,26.30
2018-11-22T04:25:21.907Z,26.40
2018-11-22T04:26:24.101Z,26.20
2018-11-22T04:27:21.895Z,25.60
2018-11-22T04:28:21.887Z,23.90
2018-11-22T04:29:21.871Z,24.70
2018-11-22T04:30:21.873Z,25.30
2018-11-22T04:31:21.891Z,26.60
2018-11-22T04:32:21.854Z,25.20
2018-11-22T04:33:21.844Z,24.80
2018-11-22T04:34:21.843Z,25.60
2018-11-22T04:35:21.831Z,26.50
2018-11-22T04:36:21.860Z,26.40
2018-11-22T04:37:21.852Z,26.70
2018-11-22T04:38:21.815Z,25.50
2018-11-22T04:39:21.810Z,25.60
2018-11-22T04:40:21.802Z,25.50
2018-11-22T04:41:21.822Z,25.80
2018-11-22T04:42:21.790Z,25.60
2018-11-22T04:43:21.786Z,25.80
2018-11-22T04:44:21.774Z,26.00
2018-11-22T04:45:21.773Z,26.20
2018-11-22T04:46:21.789Z,26.40
2018-11-22T04:47:21.754Z,26.20
2018-11-22T04:48:21.746Z,25.50
2018-11-22T04:49:21.741Z,26.10
2018-11-22T04:50:21.734Z,25.50
2018-11-22T04:51:21.754Z,26.20
2018-11-22T04:52:21.718Z,25.70
2018-11-22T04:53:21.715Z,25.10
2018-11-22T04:54:21.707Z,25.70
2018-11-22T04:55:21.701Z,25.30
2018-11-22T04:56:21.721Z,26.70
2018-11-22T04:57:21.685Z,26.10
2018-11-22T04:58:21.690Z,24.70
2018-11-22T04:59:21.675Z,25.30
2018-11-22T05:00:21.675Z,26.10
2018-11-22T05:01:21.694Z,25.30
2018-11-22T05:02:21.682Z,26.90
2018-11-22T05:03:21.647Z,26.40
2018-11-22T05:04:22.318Z,25.10
2018-11-22T05:05:21.628Z,25.40
2018-11-22T05:06:21.625Z,25.50
2018-11-22T05:07:21.648Z,24.70
2018-11-22T05:08:21.611Z,25.50
2018-11-22T05:09:21.624Z,25.00
2018-11-22T05:10:21.604Z,25.10
2018-11-22T05:11:21.594Z,25.20
2018-11-22T05:12:21.612Z,24.80
2018-11-22T05:13:21.579Z,25.10
2018-11-22T05:14:21.576Z,24.60
2018-11-22T05:15:21.566Z,25.20
2018-11-22T05:16:21.552Z,26.10
2018-11-22T05:17:21.581Z,25.60
2018-11-22T05:18:21.544Z,26.20
2018-11-22T05:19:21.542Z,24.50
2018-11-22T05:20:21.532Z,25.70
2018-11-22T05:21:21.527Z,24.90
2018-11-22T05:22:21.547Z,25.40
2018-11-22T05:23:21.511Z,25.80
2018-11-22T05:24:21.501Z,26.00
2018-11-22T05:25:21.497Z,25.10
2018-11-22T05:26:21.492Z,25.90
2018-11-22T05:27:21.517Z,27.40
2018-11-22T05:28:21.503Z,26.60
2018-11-22T05:29:21.471Z,26.00
2018-11-22T05:30:21.467Z,26.70
2018-11-22T05:31:21.458Z,26.70
2018-11-22T05:32:21.448Z,27.00
2018-11-22T05:33:21.479Z,26.50
2018-11-22T05:34:21.438Z,27.00
2018-11-22T05:35:21.433Z,28.80
2018-11-22T05:36:21.437Z,27.40
2018-11-22T05:37:21.435Z,27.70
2018-11-22T05:38:21.439Z,28.00
2018-11-22T05:39:21.410Z,29.40
2018-11-22T05:40:21.398Z,28.90
2018-11-22T05:41:21.393Z,29.10
2018-11-22T05:42:21.383Z,28.70
2018-11-22T05:43:21.406Z,28.60
2018-11-22T05:44:21.486Z,27.40
2018-11-22T05:45:21.362Z,28.50
2018-11-22T05:46:21.357Z,29.60
2018-11-22T05:47:21.353Z,29.70
2018-11-22T05:48:21.369Z,29.70
2018-11-22T05:49:21.337Z,28.30
2018-11-22T05:50:21.330Z,27.80
2018-11-22T05:51:21.325Z,28.70
2018-11-22T05:52:21.318Z,28.30
2018-11-22T05:53:21.341Z,27.60
2018-11-22T05:54:21.306Z,28.00
2018-11-22T05:55:21.300Z,28.70
2018-11-22T05:56:21.291Z,29.10
2018-11-22T05:57:21.285Z,28.60
2018-11-22T05:58:21.304Z,28.90
2018-11-22T05:59:21.267Z,29.50
2018-11-22T06:00:21.265Z,30.00
2018-11-22T06:01:21.262Z,28.80
2018-11-22T06:02:21.253Z,27.80
2018-11-22T06:03:21.314Z,29.60
2018-11-22T06:04:21.239Z,28.90
2018-11-22T06:05:21.232Z,28.40
2018-11-22T06:06:21.230Z,29.80
2018-11-22T06:07:21.217Z,29.50
2018-11-22T06:08:21.217Z,30.30
2018-11-22T06:09:21.234Z,30.50
2018-11-22T06:10:21.198Z,29.80
2018-11-22T06:11:21.191Z,29.60
2018-11-22T06:12:21.190Z,31.10
2018-11-22T06:13:21.180Z,29.70
2018-11-22T06:14:21.200Z,30.90
2018-11-22T06:15:21.160Z,30.60
2018-11-22T06:16:21.163Z,31.80
2018-11-22T06:17:21.152Z,29.60
2018-11-22T06:18:21.150Z,30.30
2018-11-22T06:19:21.212Z,29.60
2018-11-22T06:20:21.133Z,30.50
2018-11-22T06:21:21.119Z,30.50
2018-11-22T06:22:21.120Z,30.40
2018-11-22T06:23:21.107Z,30.30
2018-11-22T06:24:21.310Z,29.90
2018-11-22T06:25:21.102Z,29.30
2018-11-22T06:26:21.091Z,31.10
2018-11-22T06:27:21.087Z,30.20
2018-11-22T06:28:21.078Z,29.60
2018-11-22T06:29:21.095Z,30.20
2018-11-22T06:30:21.097Z,29.70
2018-11-22T06:31:21.062Z,30.60
2018-11-22T06:32:21.055Z,31.00
2018-11-22T06:33:21.047Z,29.60
2018-11-22T06:34:21.047Z,29.90
2018-11-22T06:35:21.063Z,29.80
2018-11-22T06:36:21.814Z,30.90
2018-11-22T06:37:21.026Z,31.60
2018-11-22T06:38:21.003Z,29.40
2018-11-22T06:39:21.007Z,31.70
2018-11-22T06:40:21.031Z,30.90
2018-11-22T06:41:20.991Z,30.90
2018-11-22T06:42:20.991Z,30.90
2018-11-22T06:43:21.005Z,31.10
2018-11-22T06:44:20.975Z,30.70
2018-11-22T06:45:21.000Z,30.80
2018-11-22T06:46:20.962Z,30.00
2018-11-22T06:47:20.953Z,30.10
2018-11-22T06:48:20.945Z,28.60
2018-11-22T06:49:20.938Z,29.50
2018-11-22T06:50:20.968Z,30.70
2018-11-22T06:51:20.925Z,29.90
2018-11-22T06:52:20.918Z,30.00
2018-11-22T06:53:20.912Z,29.90
2018-11-22T06:54:20.910Z,28.80
2018-11-22T06:55:20.926Z,30.90
2018-11-22T06:56:21.083Z,31.40
2018-11-22T06:57:20.889Z,30.40
2018-11-22T06:58:20.880Z,30.50
2018-11-22T06:59:20.873Z,31.10
2018-11-22T07:00:20.896Z,30.10
2018-11-22T07:01:20.864Z,29.90
2018-11-22T07:02:20.857Z,30.20
2018-11-22T07:03:20.849Z,30.60
2018-11-22T07:04:20.839Z,30.70
2018-11-22T07:05:20.868Z,31.70
2018-11-22T07:06:20.828Z,30.50
2018-11-22T07:07:20.823Z,31.50
2018-11-22T07:08:20.819Z,30.40
2018-11-22T07:09:20.808Z,29.50
2018-11-22T07:10:20.831Z,31.00
2018-11-22T07:11:20.796Z,31.60
2018-11-22T07:12:20.790Z,29.70
2018-11-22T07:13:20.784Z,31.20
2018-11-22T07:14:20.775Z,31.50
2018-11-22T07:15:20.797Z,33.50
2018-11-22T07:16:20.785Z,32.30
2018-11-22T07:17:20.756Z,34.70
2018-11-22T07:18:20.753Z,36.40
2018-11-22T07:19:20.743Z,33.50
2018-11-22T07:20:20.739Z,32.80
2018-11-22T07:21:20.759Z,31.90
2018-11-22T07:22:20.723Z,32.20
2018-11-22T07:23:20.720Z,31.70
2018-11-22T07:24:20.714Z,31.80
2018-11-22T07:25:20.707Z,32.00
2018-11-22T07:26:20.726Z,33.60
2018-11-22T07:27:20.691Z,33.90
2018-11-22T07:28:20.691Z,33.20
2018-11-22T07:29:20.681Z,33.20
2018-11-22T07:30:20.678Z,33.50
2018-11-22T07:31:20.694Z,33.80
2018-11-22T07:32:20.663Z,33.80
2018-11-22T07:33:20.655Z,34.40
2018-11-22T07:34:20.649Z,33.80
2018-11-22T07:35:20.642Z,33.80
2018-11-22T07:36:20.662Z,33.60
2018-11-22T07:37:20.626Z,36.60
2018-11-22T07:38:20.623Z,34.70
2018-11-22T07:39:20.614Z,35.40
2018-11-22T07:40:20.609Z,34.30
2018-11-22T07:41:20.626Z,35.90
2018-11-22T07:42:20.598Z,34.90
2018-11-22T07:43:20.589Z,34.50
2018-11-22T07:44:20.586Z,35.30
2018-11-22T07:45:20.603Z,36.00
2018-11-22T07:46:20.574Z,36.50
2018-11-22T07:47:20.593Z,35.10
2018-11-22T07:48:20.556Z,34.90
2018-11-22T07:49:20.553Z,32.80
2018-11-22T07:50:20.545Z,35.00
2018-11-22T07:51:20.538Z,36.00
2018-11-22T07:52:20.564Z,34.70
2018-11-22T07:53:20.528Z,36.60
2018-11-22T07:54:20.522Z,35.90
2018-11-22T07:55:20.513Z,37.10
2018-11-22T07:56:20.541Z,36.00
2018-11-22T07:57:20.528Z,36.00
2018-11-22T07:58:20.492Z,36.40
2018-11-22T07:59:20.489Z,35.70
2018-11-22T08:00:20.497Z,34.80
2018-11-22T08:01:20.471Z,36.20
2018-11-22T08:02:20.501Z,34.40
2018-11-22T08:03:20.462Z,36.80
2018-11-22T08:04:20.456Z,35.90
2018-11-22T08:05:20.452Z,36.50
2018-11-22T08:06:20.445Z,36.50
2018-11-22T08:07:20.466Z,36.90
2018-11-22T08:08:20.432Z,34.80
2018-11-22T08:09:20.428Z,34.20
2018-11-22T08:10:20.419Z,36.30
2018-11-22T08:11:20.407Z,35.40
2018-11-22T08:12:25.883Z,35.20
2018-11-22T08:13:20.397Z,35.60
2018-11-22T08:14:20.391Z,34.00
2018-11-22T08:15:20.384Z,34.10
2018-11-22T08:16:20.380Z,35.50
2018-11-22T08:17:20.403Z,34.50
2018-11-22T08:18:20.367Z,35.00
2018-11-22T08:19:20.364Z,36.10
2018-11-22T08:20:20.355Z,35.10
2018-11-22T08:21:20.375Z,35.40
2018-11-22T08:22:20.346Z,33.90
2018-11-22T08:23:20.364Z,34.30
2018-11-22T08:24:20.333Z,33.30
2018-11-22T08:25:20.323Z,32.40
2018-11-22T08:26:20.325Z,31.80
2018-11-22T08:27:20.311Z,19.20
2018-11-22T08:28:20.345Z,30.70
2018-11-22T08:29:20.299Z,34.20
2018-11-22T08:30:20.295Z,33.40
2018-11-22T08:31:20.289Z,33.30
2018-11-22T08:32:20.284Z,30.00
2018-11-22T08:33:20.302Z,33.40
2018-11-22T08:34:20.273Z,34.30
2018-11-22T08:35:20.261Z,35.80
2018-11-22T08:36:20.261Z,31.30
2018-11-22T08:37:20.250Z,33.80
2018-11-22T08:38:20.270Z,33.80
2018-11-22T08:39:20.237Z,32.90
2018-11-22T08:40:20.231Z,31.00
2018-11-22T08:41:20.229Z,31.40
2018-11-22T08:42:20.222Z,30.70
2018-11-22T08:43:20.241Z,31.20
2018-11-22T08:44:20.205Z,34.90
2018-11-22T08:45:20.201Z,35.00
2018-11-22T08:46:20.193Z,35.50
2018-11-22T08:47:20.190Z,35.80
2018-11-22T08:48:20.211Z,33.70
2018-11-22T08:49:20.178Z,29.90
2018-11-22T08:50:20.169Z,31.60
2018-11-22T08:51:20.193Z,33.70
2018-11-22T08:52:20.158Z,31.80
2018-11-22T08:53:20.153Z,33.40
2018-11-22T08:54:20.182Z,31.20
2018-11-22T08:55:20.141Z,34.10
2018-11-22T08:56:20.130Z,32.90
2018-11-22T08:57:20.129Z,33.00
2018-11-22T08:58:20.122Z,32.70
2018-11-22T08:59:20.146Z,33.00
2018-11-22T09:00:20.112Z,32.80
2018-11-22T09:01:20.105Z,32.00
2018-11-22T09:02:20.100Z,33.10
2018-11-22T09:03:20.096Z,33.70
2018-11-22T09:04:21.175Z,33.50
2018-11-22T09:05:20.084Z,34.40
2018-11-22T09:06:20.075Z,33.90
2018-11-22T09:07:20.075Z,34.90
2018-11-22T09:08:20.065Z,35.70
2018-11-22T09:09:20.059Z,35.80
2018-11-22T09:10:20.079Z,34.30
2018-11-22T09:11:20.047Z,33.30
2018-11-22T09:12:20.035Z,31.50
2018-11-22T09:13:20.031Z,31.40
2018-11-22T09:14:20.023Z,32.40
2018-11-22T09:15:20.047Z,33.10
2018-11-22T09:16:20.006Z,33.20
2018-11-22T09:17:20.011Z,33.60
2018-11-22T09:18:20.009Z,34.10
2018-11-22T09:19:19.995Z,34.40
2018-11-22T09:20:20.019Z,33.50
2018-11-22T09:21:19.982Z,34.00
2018-11-22T09:22:19.980Z,32.20
2018-11-22T09:23:19.968Z,28.40
2018-11-22T09:24:24.096Z,30.80
2018-11-22T09:25:19.991Z,24.80
2018-11-22T09:26:19.951Z,29.20
2018-11-22T09:27:19.950Z,31.70
2018-11-22T09:28:19.950Z,34.30
2018-11-22T09:29:19.963Z,33.10
2018-11-22T09:30:19.934Z,32.10
2018-11-22T09:31:19.926Z,25.40
2018-11-22T09:32:19.950Z,32.60
2018-11-22T09:33:19.926Z,32.90
2018-11-22T09:34:19.909Z,32.90
2018-11-22T09:35:19.975Z,31.90
2018-11-22T09:36:19.892Z,34.40
2018-11-22T09:37:19.897Z,32.20
2018-11-22T09:38:19.890Z,33.40
2018-11-22T09:39:19.876Z,33.10
2018-11-22T09:40:19.904Z,33.40
2018-11-22T09:41:19.872Z,32.30
2018-11-22T09:42:19.913Z,31.50
2018-11-22T09:43:19.860Z,34.00
2018-11-22T09:44:19.856Z,31.20
2018-11-22T09:45:19.874Z,28.60
2018-11-22T09:46:19.843Z,30.10
2018-11-22T09:47:19.839Z,28.70
2018-11-22T09:48:19.836Z,29.10
2018-11-22T09:49:19.835Z,28.60
2018-11-22T09:50:19.857Z,27.90
2018-11-22T09:51:19.832Z,25.80
2018-11-22T09:52:19.812Z,24.70
2018-11-22T09:53:19.812Z,23.60
2018-11-22T09:54:19.803Z,24.00
2018-11-22T09:55:19.827Z,24.00
2018-11-22T09:56:19.794Z,25.30
2018-11-22T09:57:19.801Z,26.10
2018-11-22T09:58:19.788Z,23.60
2018-11-22T09:59:19.836Z,24.10
2018-11-22T10:00:19.799Z,24.10
2018-11-22T10:01:19.771Z,25.30
2018-11-22T10:02:19.767Z,26.80
2018-11-22T10:03:19.767Z,27.00
2018-11-22T10:04:19.760Z,31.00
2018-11-22T10:05:19.871Z,30.20
2018-11-22T10:06:19.751Z,32.30
2018-11-22T10:07:19.746Z,29.60
2018-11-22T10:08:19.759Z,34.40
2018-11-22T10:09:19.755Z,32.90
2018-11-22T10:10:19.762Z,30.70
2018-11-22T10:11:19.729Z,29.30
2018-11-22T10:12:19.746Z,28.10
2018-11-22T10:13:19.718Z,26.40
2018-11-22T10:14:19.722Z,27.30
2018-11-22T10:15:19.742Z,24.30
2018-11-22T10:16:19.710Z,22.20
2018-11-22T10:17:19.701Z,21.90
2018-11-22T10:18:19.702Z,19.50
2018-11-22T10:19:19.704Z,20.90
2018-11-22T10:20:19.726Z,18.50
2018-11-22T10:21:19.692Z,20.60
2018-11-22T10:22:19.716Z,22.90
2018-11-22T10:23:19.682Z,18.50
2018-11-22T10:24:19.731Z,22.20
2018-11-22T10:25:19.697Z,22.10
2018-11-22T10:26:19.672Z,24.00
2018-11-22T10:27:19.665Z,26.30
2018-11-22T10:28:19.664Z,20.50
2018-11-22T10:29:19.690Z,21.70
2018-11-22T10:30:19.710Z,23.90
2018-11-22T10:31:19.712Z,21.10
2018-11-22T10:32:19.713Z,24.60
2018-11-22T10:33:19.639Z,23.90
2018-11-22T10:34:19.629Z,23.90
2018-11-22T10:35:19.708Z,23.70
2018-11-22T10:36:19.661Z,25.60
2018-11-22T10:37:19.616Z,27.20
2018-11-22T10:38:19.639Z,27.00
2018-11-22T10:40:11.762Z,21.70
2018-11-22T10:41:11.373Z,22.80
2018-11-22T10:42:11.509Z,22.70
2018-11-22T10:43:11.399Z,22.80
2018-11-22T10:44:11.818Z,23.50
2018-11-22T10:45:11.377Z,23.20
2018-11-22T10:46:11.355Z,24.80
2018-11-22T10:47:11.343Z,24.60
2018-11-22T10:48:11.392Z,24.50
2018-11-22T10:49:11.387Z,25.20
2018-11-22T10:50:11.413Z,24.10
2018-11-22T10:51:11.340Z,22.80
2018-11-22T10:52:11.345Z,18.90
2018-11-22T10:53:11.351Z,21.80
2018-11-22T10:54:11.344Z,20.80
2018-11-22T10:55:11.312Z,22.30
2018-11-22T10:56:11.343Z,22.20
2018-11-22T10:57:11.305Z,22.80
2018-11-22T10:58:11.296Z,23.10
2018-11-22T10:59:11.301Z,22.30
2018-11-22T11:00:11.435Z,21.70
2018-11-22T11:01:11.318Z,24.00
2018-11-22T11:02:11.294Z,22.40
2018-11-22T11:03:11.281Z,20.80
2018-11-22T11:04:11.277Z,23.40
2018-11-22T11:05:11.309Z,23.00
2018-11-22T11:06:11.274Z,22.70
2018-11-22T11:07:11.264Z,22.80
2018-11-22T11:08:11.290Z,23.30
2018-11-22T11:09:11.252Z,22.60
2018-11-22T11:10:11.249Z,12.50
2018-11-22T11:11:11.279Z,21.00
2018-11-22T11:12:11.248Z,23.80
2018-11-22T11:13:11.242Z,24.10
2018-11-22T11:14:11.234Z,25.90
2018-11-22T11:15:11.232Z,24.90
2018-11-22T11:16:11.256Z,25.30
2018-11-22T11:17:11.229Z,23.90
2018-11-22T11:18:11.221Z,23.50
2018-11-22T11:19:11.218Z,23.40
2018-11-22T11:20:11.211Z,26.50
2018-11-22T11:21:11.238Z,21.90
2018-11-22T11:22:11.207Z,26.30
2018-11-22T11:23:11.204Z,24.80
2018-11-22T11:24:11.204Z,25.10
2018-11-22T11:25:11.193Z,21.80
2018-11-22T11:26:11.216Z,25.70
2018-11-22T11:27:11.179Z,26.30
2018-11-22T11:28:11.184Z,26.90
2018-11-22T11:29:12.801Z,27.00
2018-11-22T11:30:11.171Z,25.80
2018-11-22T11:31:11.202Z,29.70
2018-11-22T11:32:11.171Z,25.40
2018-11-22T11:33:11.159Z,28.90
2018-11-22T11:34:11.155Z,31.20
2018-11-22T11:35:11.152Z,31.30
2018-11-22T11:36:14.100Z,28.30
2018-11-22T11:37:11.143Z,29.00
2018-11-22T11:38:11.135Z,30.30
2018-11-22T11:39:11.131Z,28.30
2018-11-22T11:40:11.315Z,28.00
2018-11-22T11:41:11.154Z,23.80
2018-11-22T11:42:11.121Z,28.50
2018-11-22T11:43:11.127Z,29.70
2018-11-22T11:44:11.113Z,30.00
2018-11-22T11:45:11.114Z,28.30
2018-11-22T11:46:11.134Z,28.70
2018-11-22T11:47:11.106Z,29.20
2018-11-22T11:48:11.104Z,29.40
2018-11-22T11:49:11.122Z,28.60
2018-11-22T11:50:11.082Z,29.50
2018-11-22T11:51:11.115Z,31.70
2018-11-22T11:52:11.083Z,28.30
2018-11-22T11:53:11.074Z,29.20
2018-11-22T11:54:11.073Z,28.80
2018-11-22T11:55:11.094Z,29.20
2018-11-22T11:56:11.057Z,28.60
2018-11-22T11:57:11.054Z,28.10
2018-11-22T11:58:11.046Z,26.80
2018-11-22T11:59:11.079Z,27.50
2018-11-22T12:00:11.042Z,29.20
2018-11-22T12:01:11.060Z,29.50
2018-11-22T12:02:15.224Z,29.70
2018-11-22T12:03:11.029Z,30.20
2018-11-22T12:04:11.026Z,29.20
2018-11-22T12:05:11.018Z,29.80
2018-11-22T12:06:11.033Z,29.80
2018-11-22T12:07:11.001Z,29.10
2018-11-22T12:08:10.998Z,29.20
2018-11-22T12:09:10.997Z,29.40
2018-11-22T12:10:10.989Z,27.50
2018-11-22T12:11:11.014Z,27.80
2018-11-22T12:12:10.980Z,28.20
2018-11-22T12:13:10.977Z,29.20
2018-11-22T12:14:10.976Z,27.40
2018-11-22T12:15:10.971Z,28.20
2018-11-22T12:16:10.989Z,27.60
2018-11-22T12:17:10.963Z,26.00
2018-11-22T12:18:10.952Z,26.90
2018-11-22T12:19:10.949Z,27.10
2018-11-22T12:20:10.967Z,26.80
2018-11-22T12:21:10.933Z,24.10
2018-11-22T12:22:10.928Z,28.50
2018-11-22T12:23:10.926Z,28.00
2018-11-22T12:24:10.952Z,24.20
2018-11-22T12:25:10.916Z,25.20
2018-11-22T12:26:10.941Z,27.20
2018-11-22T12:27:10.904Z,27.50
2018-11-22T12:28:10.904Z,27.10
2018-11-22T12:29:10.897Z,23.30
2018-11-22T12:30:10.890Z,28.40
2018-11-22T12:31:10.912Z,27.90
2018-11-22T12:32:10.876Z,26.90
2018-11-22T12:33:10.879Z,30.20
2018-11-22T12:34:10.868Z,29.10
2018-11-22T12:35:10.872Z,29.40
2018-11-22T12:36:10.885Z,29.00
2018-11-22T12:37:10.857Z,31.50
2018-11-22T12:38:10.861Z,31.70
2018-11-22T12:39:10.842Z,30.70
2018-11-22T12:40:10.867Z,31.70
2018-11-22T12:41:10.857Z,33.20
2018-11-22T12:42:10.833Z,35.00
2018-11-22T12:43:10.835Z,34.10
2018-11-22T12:44:10.817Z,34.70
2018-11-22T12:45:10.815Z,32.30
2018-11-22T12:46:10.838Z,34.80
2018-11-22T12:47:10.800Z,33.50
2018-11-22T12:48:10.795Z,34.40
2018-11-22T12:49:10.788Z,31.00
2018-11-22T12:50:10.784Z,32.60
2018-11-22T12:51:10.816Z,30.40
2018-11-22T12:52:10.779Z,29.00
2018-11-22T12:53:10.771Z,31.30